createdAt,value
2022-12-08T00:01:07.455Z,5.90
2022-12-08T00:03:35.066Z,5.88
2022-12-08T00:06:21.853Z,6.35
2022-12-08T00:09:07.340Z,5.88
2022-12-08T00:11:34.055Z,6.03
2022-12-08T00:14:01.141Z,6.93
2022-12-08T00:16:30.146Z,6.47
2022-12-08T00:18:56.723Z,5.75
2022-12-08T00:21:24.453Z,6.55
2022-12-08T00:23:51.027Z,6.32
2022-12-08T00:26:17.599Z,6.53
2022-12-08T00:28:44.180Z,5.70
2022-12-08T00:31:11.942Z,6.65
2022-12-08T00:33:38.850Z,6.50
2022-12-08T00:36:10.113Z,6.30
2022-12-08T00:38:38.098Z,6.13
2022-12-08T00:41:11.910Z,5.43
2022-12-08T00:43:38.545Z,5.57
2022-12-08T00:46:07.462Z,5.70
2022-12-08T00:48:34.740Z,5.90
2022-12-08T00:51:01.421Z,5.55
2022-12-08T00:53:28.199Z,5.47
2022-12-08T00:55:54.761Z,5.70
2022-12-08T00:58:21.432Z,5.97
2022-12-08T01:00:48.049Z,5.68
2022-12-08T01:03:14.761Z,5.35
2022-12-08T01:05:41.376Z,6.95
2022-12-08T01:08:08.846Z,5.47
2022-12-08T01:10:36.818Z,5.38
2022-12-08T01:13:03.890Z,5.55
2022-12-08T01:15:30.537Z,6.05
2022-12-08T01:17:57.132Z,5.72
2022-12-08T01:20:23.784Z,5.85
2022-12-08T01:22:50.358Z,5.13
2022-12-08T01:25:16.963Z,5.68
2022-12-08T01:27:43.540Z,6.30
2022-12-08T01:30:10.630Z,7.70
2022-12-08T01:32:37.251Z,7.50
2022-12-08T01:35:03.934Z,7.78
2022-12-08T01:37:30.589Z,7.50
2022-12-08T01:39:57.162Z,6.97
2022-12-08T01:42:25.523Z,6.20
2022-12-08T01:45:04.431Z,6.07
2022-12-08T01:47:36.604Z,6.28
2022-12-08T01:50:06.175Z,7.00
2022-12-08T01:52:39.349Z,6.35
2022-12-08T01:55:24.338Z,6.97
2022-12-08T01:57:58.728Z,6.55
2022-12-08T02:00:25.357Z,6.93
2022-12-08T02:03:11.188Z,6.63
2022-12-08T02:05:40.375Z,6.72
2022-12-08T02:08:10.169Z,5.20
2022-12-08T02:10:40.171Z,5.28
2022-12-08T02:13:11.077Z,5.38
2022-12-08T02:15:55.772Z,5.50
2022-12-08T02:18:34.505Z,5.40
2022-12-08T02:21:11.985Z,5.68
2022-12-08T02:23:54.047Z,5.30
2022-12-08T02:26:57.990Z,6.00
2022-12-08T02:30:01.909Z,6.30
2022-12-08T02:32:56.305Z,5.40
2022-12-08T02:39:03.051Z,5.78
2022-12-08T02:41:41.312Z,5.97
2022-12-08T02:44:30.355Z,5.65
2022-12-08T02:47:11.429Z,5.85
2022-12-08T02:49:38.118Z,5.47
2022-12-08T02:52:28.278Z,5.65
2022-12-08T02:55:02.289Z,5.10
2022-12-08T02:57:43.585Z,5.20
2022-12-08T03:00:13.844Z,4.78
2022-12-08T03:02:59.398Z,4.80
2022-12-08T03:06:02.826Z,5.40
2022-12-08T03:08:48.697Z,5.30
2022-12-08T03:11:25.820Z,5.57
2022-12-08T03:13:58.297Z,5.75
2022-12-08T03:16:28.231Z,5.55
2022-12-08T03:19:09.660Z,5.88
2022-12-08T03:21:39.374Z,5.93
2022-12-08T03:24:09.436Z,5.90
2022-12-08T03:26:47.357Z,5.88
2022-12-08T03:29:14.410Z,6.43
2022-12-08T03:31:48.819Z,6.70
2022-12-08T03:34:17.353Z,6.32
2022-12-08T03:36:45.196Z,6.85
2022-12-08T03:39:11.807Z,7.03
2022-12-08T03:41:38.419Z,6.60
2022-12-08T03:44:05.257Z,6.90
2022-12-08T03:46:31.873Z,6.82
2022-12-08T03:48:58.633Z,6.90
2022-12-08T03:51:27.307Z,6.88
2022-12-08T03:53:54.154Z,7.38
2022-12-08T03:56:46.900Z,6.93
2022-12-08T03:59:13.461Z,7.35
2022-12-08T04:01:40.077Z,7.38
2022-12-08T04:04:06.714Z,6.22
2022-12-08T04:06:33.364Z,7.05
2022-12-08T04:09:00.854Z,6.90
2022-12-08T04:11:27.416Z,7.00
2022-12-08T04:13:53.955Z,6.63
2022-12-08T04:16:25.422Z,6.80
2022-12-08T04:18:52.550Z,6.22
2022-12-08T04:21:19.102Z,7.03
2022-12-08T04:23:46.497Z,7.30
2022-12-08T04:26:13.770Z,7.28
2022-12-08T04:28:40.408Z,6.85
2022-12-08T04:31:07.061Z,7.45
2022-12-08T04:33:35.258Z,7.32
2022-12-08T04:36:03.588Z,7.40
2022-12-08T04:38:30.210Z,6.78
2022-12-08T04:40:56.872Z,7.00
2022-12-08T04:43:23.538Z,6.70
2022-12-08T04:45:50.398Z,6.40
2022-12-08T04:48:17.579Z,7.07
2022-12-08T04:50:45.307Z,7.55
2022-12-08T04:53:13.234Z,8.10
2022-12-08T04:55:44.906Z,7.85
2022-12-08T04:58:17.324Z,6.13
2022-12-08T05:00:44.255Z,6.90
2022-12-08T05:03:11.245Z,6.38
2022-12-08T05:05:38.079Z,5.60
2022-12-08T05:08:05.318Z,6.10
2022-12-08T05:10:32.854Z,6.13
2022-12-08T05:13:00.167Z,8.20
2022-12-08T05:15:26.904Z,6.63
2022-12-08T05:17:53.612Z,8.52
2022-12-08T05:20:21.899Z,7.35
2022-12-08T05:22:48.485Z,7.50
2022-12-08T05:25:15.107Z,6.78
2022-12-08T05:27:42.152Z,7.10
2022-12-08T05:30:09.014Z,7.50
2022-12-08T05:32:35.642Z,8.75
2022-12-08T05:35:02.247Z,6.22
2022-12-08T05:37:28.915Z,7.70
2022-12-08T05:39:55.501Z,6.18
2022-12-08T05:42:24.899Z,6.65
2022-12-08T05:44:52.080Z,5.82
2022-12-08T05:47:18.721Z,5.63
2022-12-08T05:49:45.812Z,6.65
2022-12-08T05:52:12.381Z,8.82
2022-12-08T05:54:38.990Z,9.30
2022-12-08T05:57:05.591Z,9.60
2022-12-08T05:59:32.224Z,8.75
2022-12-08T06:01:58.869Z,7.63
2022-12-08T06:04:25.516Z,8.75
2022-12-08T06:06:52.509Z,8.63
2022-12-08T06:09:19.112Z,5.63
2022-12-08T06:11:47.225Z,4.78
2022-12-08T06:14:14.042Z,5.25
2022-12-08T06:16:40.948Z,7.90
2022-12-08T06:19:07.623Z,5.35
2022-12-08T06:21:34.296Z,7.70
2022-12-08T06:24:00.917Z,9.18
2022-12-08T06:26:27.551Z,7.95
2022-12-08T06:28:54.207Z,7.20
2022-12-08T06:31:24.110Z,9.57
2022-12-08T06:33:51.713Z,7.70
2022-12-08T06:36:20.571Z,8.27
2022-12-08T06:38:47.693Z,8.75
2022-12-08T06:41:14.778Z,7.43
2022-12-08T06:43:42.606Z,10.43
2022-12-08T06:46:12.581Z,8.27
2022-12-08T06:48:39.313Z,10.00
2022-12-08T06:51:17.672Z,10.20
2022-12-08T06:53:45.208Z,10.30
2022-12-08T06:56:13.187Z,11.32
2022-12-08T06:58:40.028Z,11.38
2022-12-08T07:01:06.673Z,12.32
2022-12-08T07:03:33.773Z,9.30
2022-12-08T07:06:04.024Z,9.43
2022-12-08T07:08:31.867Z,9.35
2022-12-08T07:48:14.334Z,8.68
2022-12-08T07:50:45.267Z,9.15
2022-12-08T07:53:12.249Z,9.73
2022-12-08T07:55:42.815Z,7.68
2022-12-08T07:58:09.768Z,9.00
2022-12-08T08:00:36.689Z,9.07
2022-12-08T08:03:03.478Z,9.05
2022-12-08T08:05:30.394Z,9.90
2022-12-08T08:07:57.054Z,9.35
2022-12-08T08:10:23.672Z,8.68
2022-12-08T08:12:50.305Z,8.98
2022-12-08T08:15:17.977Z,9.35
2022-12-08T08:17:44.544Z,10.48
2022-12-08T08:20:11.599Z,9.70
2022-12-08T08:22:38.207Z,8.35
2022-12-08T08:25:05.783Z,9.30
2022-12-08T08:27:32.365Z,9.60
2022-12-08T08:29:58.961Z,9.23
2022-12-08T08:32:25.576Z,8.77
2022-12-08T08:34:52.355Z,7.53
2022-12-08T08:37:19.085Z,7.93
2022-12-08T08:39:45.748Z,7.25
2022-12-08T08:42:12.315Z,9.13
2022-12-08T08:44:39.176Z,7.95
2022-12-08T08:47:05.931Z,8.13
2022-12-08T08:49:32.628Z,8.00
2022-12-08T08:51:59.231Z,8.63
2022-12-08T08:54:25.851Z,8.20
2022-12-08T08:56:52.803Z,5.75
2022-12-08T08:59:19.403Z,7.90
2022-12-08T09:01:46.214Z,7.75
2022-12-08T09:04:12.869Z,7.95
2022-12-08T09:06:39.905Z,7.78
2022-12-08T09:09:06.712Z,7.75
2022-12-08T09:11:33.365Z,7.28
2022-12-08T09:14:00.044Z,7.95
2022-12-08T09:16:27.200Z,8.27
2022-12-08T09:18:54.006Z,6.75
2022-12-08T09:21:23.911Z,8.57
2022-12-08T09:23:53.150Z,7.68
2022-12-08T09:26:22.484Z,7.22
2022-12-08T09:28:50.955Z,8.07
2022-12-08T09:31:19.171Z,7.45
2022-12-08T09:33:47.619Z,7.53
2022-12-08T09:36:14.316Z,7.50
2022-12-08T09:38:41.361Z,6.85
2022-12-08T09:41:17.896Z,6.13
2022-12-08T09:44:12.067Z,5.88
2022-12-08T09:46:39.497Z,6.50
2022-12-08T09:49:14.190Z,6.05
2022-12-08T09:51:44.173Z,6.40
2022-12-08T09:54:37.316Z,6.75
2022-12-08T09:57:11.151Z,6.82
2022-12-08T09:59:37.843Z,6.75
2022-12-08T10:02:21.376Z,6.72
2022-12-08T10:04:48.339Z,6.10
2022-12-08T10:07:23.896Z,6.22
2022-12-08T10:09:56.377Z,6.43
2022-12-08T10:12:41.687Z,6.93
2022-12-08T10:15:17.321Z,6.70
2022-12-08T10:17:49.568Z,8.18
2022-12-08T10:20:18.712Z,5.80
2022-12-08T10:22:50.948Z,6.40
2022-12-08T10:25:22.370Z,6.97
2022-12-08T10:27:54.160Z,7.03
2022-12-08T10:30:22.448Z,6.82
2022-12-08T10:32:51.058Z,6.63
2022-12-08T10:35:19.613Z,7.45
2022-12-08T10:38:00.752Z,6.10
2022-12-08T10:40:30.789Z,6.88
2022-12-08T10:43:00.157Z,6.55
2022-12-08T10:45:28.880Z,6.43
2022-12-08T10:48:00.166Z,6.97
2022-12-08T10:50:36.700Z,7.10
2022-12-08T10:53:25.374Z,6.78
2022-12-08T10:56:05.463Z,7.32
2022-12-08T10:58:37.410Z,7.63
2022-12-08T11:01:17.208Z,6.53
2022-12-08T11:03:59.902Z,7.55
2022-12-08T11:06:29.174Z,7.45
2022-12-08T11:08:58.637Z,6.95
2022-12-08T11:11:47.968Z,6.95
2022-12-08T11:14:28.905Z,6.57
2022-12-08T11:17:04.556Z,8.18
2022-12-08T11:19:31.389Z,7.40
2022-12-08T11:21:57.955Z,6.60
2022-12-08T11:24:31.224Z,8.30
2022-12-08T11:27:04.501Z,7.07
2022-12-08T11:29:35.528Z,6.70
2022-12-08T11:32:14.640Z,6.78
2022-12-08T11:34:41.638Z,7.20
2022-12-08T11:37:16.843Z,6.70
2022-12-08T11:39:49.398Z,7.55
2022-12-08T11:42:20.706Z,7.00
2022-12-08T11:44:53.064Z,6.68
2022-12-08T11:47:28.737Z,7.43
2022-12-08T11:50:18.042Z,6.60
2022-12-08T11:52:49.907Z,6.70
2022-12-08T11:55:37.273Z,7.50
2022-12-08T11:58:21.456Z,7.60
2022-12-08T12:00:48.295Z,6.75
2022-12-08T12:03:30.009Z,7.45
2022-12-08T12:06:38.159Z,7.70
2022-12-08T12:09:19.696Z,7.15
2022-12-08T12:12:27.882Z,7.93
2022-12-08T12:15:33.339Z,7.35
2022-12-08T12:18:19.897Z,8.27
2022-12-08T12:20:57.350Z,7.40
2022-12-08T12:23:39.488Z,8.63
2022-12-08T12:26:09.061Z,6.80
2022-12-08T12:29:04.005Z,8.63
2022-12-08T12:31:37.315Z,8.02
2022-12-08T12:34:15.385Z,8.00
2022-12-08T12:36:49.864Z,8.10
2022-12-08T12:39:20.167Z,7.65
2022-12-08T12:41:52.850Z,7.07
2022-12-08T12:44:19.385Z,7.38
2022-12-08T12:46:48.968Z,7.75
2022-12-08T12:49:40.290Z,7.75
2022-12-08T12:52:07.132Z,8.25
2022-12-08T12:54:33.834Z,8.15
2022-12-08T12:57:09.834Z,8.82
2022-12-08T12:59:44.054Z,7.82
2022-12-08T13:02:31.452Z,8.20
2022-12-08T13:05:13.342Z,8.48
2022-12-08T13:07:50.412Z,9.13
2022-12-08T13:10:22.280Z,8.93
2022-12-08T13:13:10.754Z,8.15
2022-12-08T13:15:40.520Z,9.02
2022-12-08T13:18:19.611Z,8.40
2022-12-08T13:20:50.793Z,8.40
2022-12-08T13:23:45.241Z,7.70
2022-12-08T13:26:25.902Z,8.32
2022-12-08T13:29:04.297Z,8.27
2022-12-08T13:31:52.253Z,8.70
2022-12-08T13:34:55.158Z,9.27
2022-12-08T13:37:53.942Z,8.52
2022-12-08T13:40:28.184Z,8.63
2022-12-08T13:43:20.122Z,8.27
2022-12-08T13:46:52.559Z,8.05
2022-12-08T13:57:29.228Z,8.20
2022-12-08T14:00:14.874Z,8.70
2022-12-08T14:02:47.858Z,8.60
2022-12-08T14:05:20.396Z,8.18
2022-12-08T14:07:55.249Z,9.47
2022-12-08T14:10:32.356Z,8.27
2022-12-08T14:13:06.637Z,9.70
2022-12-08T14:15:37.614Z,8.63
2022-12-08T14:18:05.941Z,8.82
2022-12-08T14:20:52.007Z,8.60
2022-12-08T14:23:21.326Z,7.85
2022-12-08T14:25:48.540Z,8.95
2022-12-08T14:28:15.204Z,8.93
2022-12-08T14:30:41.918Z,9.60
2022-12-08T14:33:13.805Z,10.18
2022-12-08T14:35:40.543Z,9.30
2022-12-08T14:38:18.516Z,9.93
2022-12-08T14:40:47.757Z,9.88
2022-12-08T14:43:17.681Z,9.55
2022-12-08T14:45:44.249Z,9.40
2022-12-08T14:48:36.473Z,9.10
2022-12-08T14:51:21.258Z,9.60
2022-12-08T14:53:59.284Z,9.50
2022-12-08T14:56:38.134Z,10.30
2022-12-08T14:59:13.149Z,12.00
2022-12-08T15:01:40.907Z,10.75
2022-12-08T15:04:12.567Z,11.23
2022-12-08T15:07:02.974Z,10.30
2022-12-08T15:09:44.349Z,9.52
2022-12-08T15:12:13.674Z,9.65
2022-12-08T15:15:04.634Z,11.15
2022-12-08T15:17:40.448Z,11.60
2022-12-08T15:20:28.761Z,11.05
2022-12-08T15:22:59.916Z,10.38
2022-12-08T15:25:26.545Z,10.38
2022-12-08T15:27:57.237Z,10.13
2022-12-08T15:30:26.594Z,9.38
2022-12-08T15:32:54.411Z,8.95
2022-12-08T15:35:21.444Z,9.75
2022-12-08T15:37:48.424Z,10.52
2022-12-08T15:40:21.312Z,9.68
2022-12-08T15:42:49.020Z,10.27
2022-12-08T15:45:17.253Z,10.65
2022-12-08T15:47:45.197Z,10.02
2022-12-08T15:50:18.134Z,10.75
2022-12-08T15:52:45.151Z,10.55
2022-12-08T15:55:16.533Z,11.10
2022-12-08T16:00:54.299Z,11.75
2022-12-08T16:04:19.848Z,11.00
2022-12-08T16:09:15.104Z,11.02
2022-12-08T16:12:09.869Z,12.25
2022-12-08T16:17:25.277Z,11.25
2022-12-08T16:19:51.951Z,13.23
2022-12-08T16:25:20.310Z,13.45
2022-12-08T16:28:05.530Z,11.07
2022-12-08T16:30:35.452Z,13.40
2022-12-08T16:33:02.082Z,14.57
2022-12-08T16:35:28.907Z,11.88
2022-12-08T16:37:55.783Z,11.25
2022-12-08T16:40:22.475Z,11.52
2022-12-08T16:42:50.466Z,10.07
2022-12-08T16:45:26.079Z,10.27
2022-12-08T16:47:55.497Z,11.18
2022-12-08T16:50:23.269Z,10.55
2022-12-08T16:52:55.924Z,10.70
2022-12-08T16:55:22.534Z,10.13
2022-12-08T16:57:49.321Z,10.88
2022-12-08T17:00:20.042Z,9.93
2022-12-08T17:02:46.762Z,10.68
2022-12-08T17:05:15.748Z,10.85
2022-12-08T17:07:44.340Z,10.18
2022-12-08T17:10:14.050Z,9.93
2022-12-08T17:12:42.114Z,10.40
2022-12-08T17:15:13.037Z,10.20
2022-12-08T17:17:39.902Z,10.15
2022-12-08T17:20:18.194Z,9.73
2022-12-08T17:22:45.596Z,11.35
2022-12-08T17:25:13.879Z,12.27
2022-12-08T17:27:41.281Z,11.32
2022-12-08T17:30:09.827Z,12.18
2022-12-08T17:32:37.962Z,12.35
2022-12-08T17:35:05.289Z,13.15
2022-12-08T17:37:34.541Z,11.95
2022-12-08T17:40:01.487Z,11.77
2022-12-08T17:42:28.094Z,13.15
2022-12-08T17:44:56.282Z,14.02
2022-12-08T17:47:25.034Z,17.70
2022-12-08T17:49:53.763Z,18.05
2022-12-08T17:54:53.186Z,15.50
2022-12-08T17:57:19.971Z,15.75
2022-12-08T17:59:46.539Z,15.13
2022-12-08T18:02:13.260Z,15.25
2022-12-08T18:04:40.806Z,14.85
2022-12-08T18:07:07.376Z,14.60
2022-12-08T18:09:34.077Z,14.10
2022-12-08T18:12:00.715Z,12.25
2022-12-08T18:14:27.634Z,13.93
2022-12-08T18:16:54.319Z,13.13
2022-12-08T18:19:20.946Z,13.88
2022-12-08T18:21:47.527Z,14.50
2022-12-08T18:24:22.890Z,12.93
2022-12-08T18:26:52.845Z,15.00
2022-12-08T18:29:20.905Z,13.77
2022-12-08T18:31:47.749Z,13.73
2022-12-08T18:34:14.446Z,13.90
2022-12-08T18:36:41.184Z,12.30
2022-12-08T18:39:11.045Z,13.38
2022-12-08T18:41:37.810Z,13.52
2022-12-08T18:44:04.773Z,13.13
2022-12-08T18:46:31.582Z,13.23
2022-12-08T18:49:02.197Z,14.48
2022-12-08T18:51:28.865Z,13.38
2022-12-08T18:53:55.450Z,14.02
2022-12-08T18:56:30.773Z,14.93
2022-12-08T18:59:03.230Z,14.37
2022-12-08T19:01:36.314Z,15.25
2022-12-08T19:04:28.341Z,12.73
2022-12-08T19:06:53.316Z,14.07
2022-12-08T19:09:21.786Z,9.23
2022-12-08T19:11:48.911Z,8.55
2022-12-08T19:14:15.855Z,11.48
2022-12-08T19:16:42.476Z,12.90
2022-12-08T19:19:12.320Z,13.40
2022-12-08T19:21:44.558Z,12.95
2022-12-08T19:24:12.919Z,12.90
2022-12-08T19:26:39.840Z,13.05
2022-12-08T19:29:06.708Z,12.07
2022-12-08T19:31:33.413Z,13.45
2022-12-08T19:34:00.102Z,12.70
2022-12-08T19:36:27.737Z,11.98
2022-12-08T19:39:12.942Z,12.57
2022-12-08T19:41:58.067Z,12.25
2022-12-08T19:44:46.238Z,11.02
2022-12-08T19:47:13.294Z,10.05
2022-12-08T19:49:40.143Z,11.68
2022-12-08T19:52:08.531Z,12.73
2022-12-08T19:54:35.901Z,9.75
2022-12-08T19:57:02.837Z,11.80
2022-12-08T19:59:30.387Z,11.43
2022-12-08T20:01:58.567Z,11.82
2022-12-08T20:04:27.398Z,11.45
2022-12-08T20:06:55.743Z,12.20
2022-12-08T20:09:23.170Z,9.85
2022-12-08T20:11:50.977Z,10.98
2022-12-08T20:14:21.925Z,9.57
2022-12-08T20:16:48.825Z,8.60
2022-12-08T20:19:15.553Z,9.15
2022-12-08T20:21:42.211Z,10.40
2022-12-08T20:24:08.909Z,10.80
2022-12-08T20:26:36.546Z,11.50
2022-12-08T20:29:03.506Z,10.13
2022-12-08T20:31:31.326Z,12.35
2022-12-08T20:33:58.151Z,11.18
2022-12-08T20:36:24.979Z,11.48
2022-12-08T20:38:53.026Z,11.75
2022-12-08T20:41:23.364Z,10.30
2022-12-08T20:43:51.198Z,11.55
2022-12-08T20:46:19.425Z,10.57
2022-12-08T20:48:46.294Z,11.38
2022-12-08T20:51:18.392Z,8.55
2022-12-08T20:53:45.377Z,11.20
2022-12-08T20:56:21.467Z,12.10
2022-12-08T20:58:49.619Z,11.80
2022-12-08T21:01:19.513Z,12.25
2022-12-08T21:03:47.010Z,12.65
2022-12-08T21:06:14.418Z,10.48
2022-12-08T21:08:42.797Z,11.93
2022-12-08T21:11:10.437Z,10.88
2022-12-08T21:13:37.606Z,11.25
2022-12-08T21:16:05.412Z,11.52
2022-12-08T21:18:38.945Z,11.25
2022-12-08T21:21:10.031Z,11.57
2022-12-08T21:23:37.224Z,14.32
2022-12-08T21:26:11.504Z,12.02
2022-12-08T21:28:38.220Z,11.82
2022-12-08T21:31:09.157Z,11.68
2022-12-08T21:33:36.633Z,10.65
2022-12-08T21:36:14.633Z,13.05
2022-12-08T21:38:41.513Z,12.07
2022-12-08T21:41:13.192Z,12.40
2022-12-08T21:43:41.168Z,11.05
2022-12-08T21:46:15.435Z,12.55
2022-12-08T21:48:42.353Z,11.30
2022-12-08T21:51:09.289Z,13.60
2022-12-08T21:53:35.877Z,12.38
2022-12-08T21:56:02.604Z,12.80
2022-12-08T21:58:32.094Z,11.68
2022-12-08T22:01:05.296Z,11.05
2022-12-08T22:03:32.474Z,12.93
2022-12-08T22:06:11.181Z,12.45
2022-12-08T22:08:38.408Z,12.70
2022-12-08T22:11:05.601Z,11.32
2022-12-08T22:13:36.643Z,12.77
2022-12-08T22:16:06.036Z,11.02
2022-12-08T22:18:34.474Z,11.55
2022-12-08T22:21:01.543Z,11.88
2022-12-08T22:23:28.912Z,12.75
2022-12-08T22:26:00.082Z,11.30
2022-12-08T22:28:28.402Z,11.40
2022-12-08T22:30:55.041Z,11.60
2022-12-08T22:33:21.789Z,11.48
2022-12-08T22:36:02.211Z,10.80
2022-12-08T22:38:31.506Z,11.57
2022-12-08T22:40:58.198Z,11.85
2022-12-08T22:43:25.058Z,11.52
2022-12-08T22:45:51.938Z,12.15
2022-12-08T22:48:18.671Z,11.82
2022-12-08T22:50:45.305Z,12.85
2022-12-08T22:53:12.825Z,12.80
2022-12-08T22:55:46.472Z,11.68
2022-12-08T22:58:13.132Z,12.48
2022-12-08T23:00:40.129Z,5.43
2022-12-08T23:03:06.985Z,6.88
2022-12-08T23:05:38.864Z,12.60
2022-12-08T23:08:07.291Z,13.30
2022-12-08T23:10:35.355Z,12.63
2022-12-08T23:13:04.165Z,12.93
2022-12-08T23:15:31.600Z,13.07
2022-12-08T23:17:58.674Z,14.27
2022-12-08T23:20:25.441Z,11.52
2022-12-08T23:22:52.079Z,11.68
2022-12-08T23:25:19.151Z,12.55
2022-12-08T23:27:46.554Z,11.25
2022-12-08T23:30:26.184Z,12.50
2022-12-08T23:32:56.610Z,13.07
2022-12-08T23:35:23.686Z,12.25
2022-12-08T23:37:50.745Z,11.77
2022-12-08T23:40:17.716Z,11.23
2022-12-08T23:42:44.834Z,11.52
2022-12-08T23:45:12.065Z,11.52
2022-12-08T23:47:39.001Z,11.90
2022-12-08T23:50:07.633Z,11.98
2022-12-08T23:52:34.840Z,11.80
2022-12-08T23:55:01.784Z,11.70
2022-12-08T23:57:28.737Z,14.23
2022-12-08T23:59:55.403Z,12.05
